This is the latest recevied weather packets stored in our database for station/object KI6PPU. If no packets are shown the sender has not sent any weather packets the latest 10 day(s).
| Time | Temp. | Humidity | Pressure | Rain* | Wind** | Luminosity | Snow |
|---|---|---|---|---|---|---|---|
| 1777334143 | 18.89° C | 45% | 1018.2 hPa | 0 mm | - | 269 W/m² | - |
| 1777333842 | 20° C | 43% | 1018.2 hPa | 0 mm | - | 243 W/m² | - |
| 1777333539 | 20° C | 47% | 1018.3 hPa | 0 mm | - | 215 W/m² | - |
| 1777333235 | 20° C | 44% | 1018.4 hPa | 0 mm | - | 420 W/m² | - |
| 1777332934 | 20° C | 44% | 1018.2 hPa | 0 mm | - | 352 W/m² | - |
| 1777332632 | 20° C | 44% | 1018.2 hPa | 0 mm | - | 416 W/m² | - |
| 1777332328 | 20° C | 51% | 1018.1 hPa | 0 mm | - | 574 W/m² | - |
| 1777332025 | 20° C | 50% | 1018.5 hPa | 0 mm | - | 312 W/m² | - |
| 1777331723 | 20° C | 50% | 1018.2 hPa | 0 mm | - | 558 W/m² | - |
| 1777331419 | 18.89° C | 48% | 1018.4 hPa | 0 mm | - | 652 W/m² | - |
| 1777331117 | 18.89° C | 48% | 1018.5 hPa | 0 mm | - | 187 W/m² | - |
| 1777330814 | 20° C | 50% | 1018.4 hPa | 0 mm | - | 618 W/m² | - |
| 1777330510 | 20° C | 48% | 1018.4 hPa | 0 mm | - | 663 W/m² | - |
| 1777330208 | 20° C | 46% | 1018.4 hPa | 0 mm | - | 187 W/m² | - |
| 1777329906 | 20° C | 52% | 1018.4 hPa | 0 mm | - | 573 W/m² | - |
| 1777329605 | 18.33° C | 57% | 1018.3 hPa | 0 mm | - | 676 W/m² | - |
| 1777329303 | 17.78° C | 51% | 1018.6 hPa | 0 mm | - | 132 W/m² | - |
| 1777328999 | 17.78° C | 52% | 1018.4 hPa | 0 mm | - | 131 W/m² | - |
| 1777328698 | 19.44° C | 50% | 1018.4 hPa | 0 mm | - | 174 W/m² | - |
| 1777328395 | 18.89° C | 53% | 1018.3 hPa | 0 mm | - | 679 W/m² | - |
| 1777328093 | 18.89° C | 53% | 1018.6 hPa | 0 mm | - | 629 W/m² | - |
| 1777327791 | 18.89° C | 54% | 1018.5 hPa | 0 mm | - | 615 W/m² | - |
| 1777327489 | 18.33° C | 58% | 1018.4 hPa | 0 mm | - | 621 W/m² | - |
| 1777327185 | 18.33° C | 56% | 1018.5 hPa | 0 mm | - | 728 W/m² | - |
| 1777326883 | 18.89° C | 57% | 1018.5 hPa | 0 mm | - | 694 W/m² | - |
* Rain latest hour (hover to see other rain measurements)
** Current wind speed in m/s (hover to see current wind gust speed)